createdAt,value
2023-01-20T00:01:46.547Z,1.90
2023-01-20T00:04:19.059Z,1.90
2023-01-20T00:06:47.797Z,1.90
2023-01-20T00:09:18.656Z,1.90
2023-01-20T00:11:47.349Z,1.90
2023-01-20T00:14:15.893Z,1.90
2023-01-20T00:16:44.094Z,1.90
2023-01-20T00:19:15.675Z,1.90
2023-01-20T00:21:44.591Z,1.90
2023-01-20T00:24:12.825Z,1.90
2023-01-20T00:26:41.132Z,1.90
2023-01-20T00:29:10.534Z,1.90
2023-01-20T00:31:38.998Z,1.90
2023-01-20T00:34:07.172Z,1.90
2023-01-20T00:36:36.800Z,1.90
2023-01-20T00:39:05.890Z,1.90
2023-01-20T00:41:34.177Z,1.90
2023-01-20T00:44:02.290Z,1.90
2023-01-20T00:46:30.438Z,1.90
2023-01-20T00:48:58.698Z,1.90
2023-01-20T00:51:26.789Z,1.90
2023-01-20T00:53:56.302Z,1.90
2023-01-20T00:56:24.415Z,1.90
2023-01-20T00:58:55.049Z,1.90
2023-01-20T01:01:23.724Z,1.90
2023-01-20T01:03:55.028Z,1.90
2023-01-20T01:06:23.672Z,1.90
2023-01-20T01:08:52.601Z,1.90
2023-01-20T01:11:22.104Z,1.90
2023-01-20T01:13:50.221Z,1.90
2023-01-20T01:16:18.351Z,1.90
2023-01-20T01:18:46.516Z,1.90
2023-01-20T01:21:18.042Z,1.90
2023-01-20T01:23:47.262Z,2.00
2023-01-20T01:26:15.771Z,2.00
2023-01-20T01:28:47.972Z,2.00
2023-01-20T01:31:18.892Z,2.00
2023-01-20T01:33:47.092Z,2.00
2023-01-20T01:36:18.263Z,2.00
2023-01-20T01:38:58.196Z,2.00
2023-01-20T01:41:27.774Z,2.00
2023-01-20T01:44:08.970Z,2.00
2023-01-20T01:46:37.523Z,2.00
2023-01-20T01:49:13.972Z,2.00
2023-01-20T01:51:48.599Z,2.00
2023-01-20T01:54:22.675Z,2.10
2023-01-20T01:56:52.767Z,2.10
2023-01-20T01:59:22.843Z,2.10
2023-01-20T02:01:53.664Z,2.10
2023-01-20T02:04:25.167Z,2.10
2023-01-20T02:07:01.381Z,2.10
2023-01-20T02:09:31.243Z,2.00
2023-01-20T02:12:03.523Z,2.00
2023-01-20T02:14:37.051Z,2.00
2023-01-20T02:17:19.750Z,2.10
2023-01-20T02:20:27.845Z,2.00
2023-01-20T02:23:08.042Z,2.00
2023-01-20T02:26:08.184Z,2.00
2023-01-20T02:29:29.980Z,2.00
2023-01-20T02:32:29.751Z,2.00
2023-01-20T02:35:04.012Z,2.00
2023-01-20T02:37:44.739Z,2.00
2023-01-20T02:40:29.033Z,2.00
2023-01-20T02:43:08.221Z,2.00
2023-01-20T02:45:44.548Z,2.00
2023-01-20T02:48:25.159Z,2.00
2023-01-20T02:51:02.014Z,2.00
2023-01-20T02:53:38.413Z,2.00
2023-01-20T02:56:08.749Z,2.00
2023-01-20T02:58:44.092Z,2.00
2023-01-20T03:01:20.499Z,2.00
2023-01-20T03:03:58.292Z,1.90
2023-01-20T03:06:33.249Z,1.90
2023-01-20T03:09:08.085Z,1.90
2023-01-20T03:11:42.587Z,1.90
2023-01-20T03:14:14.790Z,1.90
2023-01-20T03:16:43.558Z,1.90
2023-01-20T03:19:13.270Z,1.90
2023-01-20T03:21:41.732Z,1.90
2023-01-20T03:24:10.297Z,1.90
2023-01-20T03:26:39.589Z,1.90
2023-01-20T03:29:11.301Z,1.90
2023-01-20T03:31:44.029Z,2.00
2023-01-20T03:34:21.442Z,1.90
2023-01-20T03:36:50.606Z,1.90
2023-01-20T03:39:20.108Z,1.90
2023-01-20T03:41:59.731Z,1.90
2023-01-20T03:44:47.705Z,1.90
2023-01-20T03:47:28.322Z,1.90
2023-01-20T03:50:09.407Z,1.90
2023-01-20T03:52:47.250Z,1.80
2023-01-20T03:55:23.983Z,1.80
2023-01-20T03:58:03.303Z,1.80
2023-01-20T04:00:36.516Z,1.80
2023-01-20T04:03:10.620Z,1.80
2023-01-20T04:05:41.980Z,1.80
2023-01-20T04:08:13.398Z,1.80
2023-01-20T04:10:46.833Z,1.80
2023-01-20T04:13:16.132Z,1.80
2023-01-20T04:15:46.858Z,1.80
2023-01-20T04:18:19.323Z,1.80
2023-01-20T04:20:54.070Z,1.80
2023-01-20T04:23:29.179Z,1.80
2023-01-20T04:25:57.287Z,1.80
2023-01-20T04:28:26.001Z,1.80
2023-01-20T04:30:54.335Z,1.80
2023-01-20T04:33:22.540Z,1.80
2023-01-20T04:35:52.071Z,1.80
2023-01-20T04:38:20.215Z,1.80
2023-01-20T04:40:48.327Z,1.90
2023-01-20T04:43:16.804Z,1.90
2023-01-20T04:45:44.947Z,1.90
2023-01-20T04:48:13.135Z,1.90
2023-01-20T04:50:42.520Z,1.90
2023-01-20T04:53:16.939Z,1.90
2023-01-20T04:55:45.112Z,1.90
2023-01-20T04:58:13.428Z,2.00
2023-01-20T05:00:43.624Z,1.90
2023-01-20T05:03:11.898Z,2.00
2023-01-20T05:05:40.295Z,2.00
2023-01-20T05:08:08.645Z,2.00
2023-01-20T05:10:38.219Z,2.00
2023-01-20T05:13:06.407Z,2.00
2023-01-20T05:15:34.527Z,2.00
2023-01-20T05:18:02.632Z,2.10
2023-01-20T05:20:30.730Z,2.10
2023-01-20T05:23:01.384Z,2.10
2023-01-20T05:25:30.062Z,2.10
2023-01-20T05:28:02.766Z,2.10
2023-01-20T05:30:30.936Z,2.10
2023-01-20T05:32:59.113Z,2.10
2023-01-20T05:35:27.413Z,2.10
2023-01-20T05:37:56.132Z,2.10
2023-01-20T05:40:24.291Z,2.10
2023-01-20T05:42:52.421Z,2.10
2023-01-20T05:45:21.961Z,2.20
2023-01-20T05:47:55.545Z,2.10
2023-01-20T05:50:23.722Z,2.10
2023-01-20T05:52:51.850Z,2.20
2023-01-20T05:55:22.374Z,2.10
2023-01-20T05:57:50.572Z,2.10
2023-01-20T06:00:21.759Z,2.10
2023-01-20T06:02:49.931Z,2.20
2023-01-20T06:05:18.481Z,2.20
2023-01-20T06:07:46.716Z,2.20
2023-01-20T06:10:15.117Z,2.20
2023-01-20T06:12:43.822Z,2.20
2023-01-20T06:15:13.117Z,2.20
2023-01-20T06:17:42.900Z,2.20
2023-01-20T06:20:12.720Z,2.20
2023-01-20T06:22:40.810Z,2.20
2023-01-20T06:25:10.004Z,2.20
2023-01-20T06:27:38.331Z,2.20
2023-01-20T06:30:07.985Z,2.20
2023-01-20T06:32:36.056Z,2.20
2023-01-20T06:35:06.447Z,2.20
2023-01-20T06:37:34.592Z,2.20
2023-01-20T06:40:02.667Z,2.20
2023-01-20T06:42:32.432Z,2.20
2023-01-20T06:45:00.563Z,2.30
2023-01-20T06:47:28.712Z,2.30
2023-01-20T06:49:56.774Z,2.30
2023-01-20T06:52:26.416Z,2.30
2023-01-20T06:54:54.622Z,2.30
2023-01-20T06:57:37.828Z,2.30
2023-01-20T07:00:07.693Z,2.30
2023-01-20T07:02:35.879Z,2.30
2023-01-20T07:05:08.001Z,2.20
2023-01-20T07:07:37.531Z,2.20
2023-01-20T07:10:07.026Z,2.20
2023-01-20T07:12:35.250Z,2.20
2023-01-20T07:15:03.370Z,2.20
2023-01-20T07:17:31.547Z,2.20
2023-01-20T07:19:59.659Z,2.20
2023-01-20T07:22:27.725Z,2.20
2023-01-20T07:24:57.178Z,2.20
2023-01-20T07:27:25.369Z,2.20
2023-01-20T07:29:53.532Z,2.20
2023-01-20T07:32:21.710Z,2.20
2023-01-20T07:34:50.349Z,2.20
2023-01-20T07:37:18.458Z,2.20
2023-01-20T07:39:46.568Z,2.20
2023-01-20T07:42:16.008Z,2.30
2023-01-20T07:44:44.205Z,2.30
2023-01-20T07:47:12.414Z,2.30
2023-01-20T07:49:40.530Z,2.20
2023-01-20T07:52:08.633Z,2.30
2023-01-20T07:54:36.784Z,2.30
2023-01-20T07:57:05.159Z,2.30
2023-01-20T07:59:34.625Z,2.40
2023-01-20T08:02:02.823Z,2.40
2023-01-20T08:04:31.044Z,2.40
2023-01-20T08:06:59.142Z,2.40
2023-01-20T08:09:27.511Z,2.50
2023-01-20T08:11:55.678Z,2.50
2023-01-20T08:14:23.928Z,2.50
2023-01-20T08:16:56.125Z,2.50
2023-01-20T08:19:24.567Z,2.60
2023-01-20T08:21:52.693Z,2.60
2023-01-20T08:24:20.793Z,2.60
2023-01-20T08:26:48.958Z,2.60
2023-01-20T08:29:17.042Z,2.60
2023-01-20T08:31:45.321Z,2.60
2023-01-20T08:34:16.091Z,2.70
2023-01-20T08:36:44.194Z,2.70
2023-01-20T08:39:18.036Z,2.70
2023-01-20T08:41:48.230Z,2.70
2023-01-20T08:44:18.591Z,2.70
2023-01-20T08:46:46.794Z,2.70
2023-01-20T08:49:18.383Z,2.70
2023-01-20T08:51:46.971Z,2.70
2023-01-20T08:54:16.165Z,2.70
2023-01-20T08:56:44.341Z,2.70
2023-01-20T08:59:12.974Z,2.70
2023-01-20T09:01:42.556Z,2.80
2023-01-20T09:04:10.880Z,2.80
2023-01-20T09:06:46.925Z,2.80
2023-01-20T09:09:18.683Z,2.90
2023-01-20T09:11:51.033Z,2.90
2023-01-20T09:14:20.408Z,2.90
2023-01-20T09:16:48.866Z,3.00
2023-01-20T09:19:17.627Z,3.00
2023-01-20T09:21:47.161Z,3.10
2023-01-20T09:24:15.530Z,3.10
2023-01-20T09:26:44.795Z,3.20
2023-01-20T09:29:15.566Z,3.20
2023-01-20T09:31:46.804Z,3.30
2023-01-20T09:34:23.071Z,3.30
2023-01-20T09:36:54.365Z,3.30
2023-01-20T09:39:40.715Z,3.30
2023-01-20T09:42:50.855Z,3.30
2023-01-20T09:45:28.696Z,3.30
2023-01-20T09:48:14.884Z,3.30
2023-01-20T09:51:09.213Z,3.30
2023-01-20T09:53:53.662Z,3.40
2023-01-20T09:56:26.995Z,3.40
2023-01-20T09:59:02.089Z,3.40
2023-01-20T10:01:40.087Z,3.40
2023-01-20T10:04:17.638Z,3.40
2023-01-20T10:06:50.880Z,3.40
2023-01-20T10:09:33.577Z,3.40
2023-01-20T10:12:10.302Z,3.40
2023-01-20T10:14:46.308Z,3.40
2023-01-20T10:17:22.731Z,3.40
2023-01-20T10:19:58.875Z,3.40
2023-01-20T10:22:35.652Z,3.50
2023-01-20T10:25:13.564Z,3.60
2023-01-20T10:27:51.369Z,3.70
2023-01-20T10:30:24.616Z,3.80
2023-01-20T10:33:01.774Z,3.90
2023-01-20T10:35:37.836Z,4.00
2023-01-20T10:38:09.999Z,4.00
2023-01-20T10:40:47.427Z,4.10
2023-01-20T10:43:18.451Z,4.10
2023-01-20T10:46:17.600Z,4.10
2023-01-20T10:49:25.768Z,4.10
2023-01-20T10:52:12.047Z,4.20
2023-01-20T10:54:53.868Z,4.30
2023-01-20T10:57:24.046Z,4.40
2023-01-20T10:59:56.730Z,4.40
2023-01-20T11:02:29.109Z,4.50
2023-01-20T11:05:01.490Z,4.50
2023-01-20T11:07:31.141Z,4.60
2023-01-20T11:10:02.076Z,4.70
2023-01-20T11:12:40.838Z,4.90
2023-01-20T11:15:19.739Z,5.00
2023-01-20T11:17:48.437Z,5.00
2023-01-20T11:20:23.230Z,5.10
2023-01-20T11:22:51.521Z,5.10
2023-01-20T11:25:27.747Z,5.10
2023-01-20T11:27:58.138Z,5.10
2023-01-20T11:30:31.997Z,5.00
2023-01-20T11:33:18.660Z,5.00
2023-01-20T11:36:01.031Z,5.10
2023-01-20T11:38:31.152Z,5.30
2023-01-20T11:40:59.829Z,5.40
2023-01-20T11:43:37.837Z,5.50
2023-01-20T11:46:22.490Z,5.70
2023-01-20T11:48:51.974Z,5.90
2023-01-20T11:51:25.257Z,6.20
2023-01-20T11:54:07.943Z,6.50
2023-01-20T11:56:42.585Z,6.80
2023-01-20T11:59:25.302Z,7.00
2023-01-20T12:02:02.464Z,7.10
2023-01-20T12:05:02.556Z,7.20
2023-01-20T12:07:38.399Z,7.10
2023-01-20T12:10:18.213Z,7.00
2023-01-20T12:12:55.498Z,6.90
2023-01-20T12:15:28.359Z,6.80
2023-01-20T12:18:01.669Z,6.60
2023-01-20T12:20:53.968Z,6.50
2023-01-20T12:23:39.156Z,6.30
2023-01-20T12:26:10.871Z,6.10
2023-01-20T12:28:49.060Z,6.00
2023-01-20T12:31:20.830Z,5.80
2023-01-20T12:33:52.410Z,5.70
2023-01-20T12:37:02.218Z,5.60
2023-01-20T12:39:49.004Z,5.60
2023-01-20T12:43:00.409Z,5.60
2023-01-20T12:45:48.032Z,5.60
2023-01-20T12:48:44.714Z,5.60
2023-01-20T12:51:39.713Z,5.50
2023-01-20T12:54:54.369Z,5.40
2023-01-20T12:57:53.029Z,5.30
2023-01-20T13:00:40.145Z,5.20
2023-01-20T13:03:55.258Z,5.10
2023-01-20T13:07:06.641Z,5.10
2023-01-20T13:09:56.323Z,5.10
2023-01-20T13:12:47.611Z,5.00
2023-01-20T13:15:29.072Z,5.10
2023-01-20T13:18:30.843Z,5.10
2023-01-20T13:21:00.312Z,5.10
2023-01-20T13:23:32.149Z,5.10
2023-01-20T13:26:02.772Z,5.10
2023-01-20T13:28:32.484Z,5.10
2023-01-20T13:31:22.570Z,5.10
2023-01-20T13:33:50.957Z,5.10
2023-01-20T13:36:23.420Z,5.10
2023-01-20T13:39:40.481Z,5.10
2023-01-20T13:42:44.435Z,5.10
2023-01-20T13:45:27.472Z,5.00
2023-01-20T13:48:03.312Z,4.90
2023-01-20T13:50:35.026Z,4.80
2023-01-20T13:53:14.892Z,4.70
2023-01-20T13:56:00.884Z,4.60
2023-01-20T13:58:32.477Z,4.50
2023-01-20T14:01:03.912Z,4.50
2023-01-20T14:03:35.145Z,4.50
2023-01-20T14:06:07.097Z,4.50
2023-01-20T14:08:43.922Z,4.50
2023-01-20T14:11:15.343Z,4.50
2023-01-20T14:13:52.259Z,4.50
2023-01-20T14:16:25.443Z,4.50
2023-01-20T14:18:55.332Z,4.40
2023-01-20T14:21:27.406Z,4.40
2023-01-20T14:23:57.409Z,4.40
2023-01-20T14:26:29.732Z,4.30
2023-01-20T14:29:00.872Z,4.30
2023-01-20T14:31:40.629Z,4.40
2023-01-20T14:34:27.891Z,4.40
2023-01-20T14:36:59.916Z,4.30
2023-01-20T14:39:31.784Z,4.30
2023-01-20T14:42:01.414Z,4.40
2023-01-20T14:44:33.588Z,4.40
2023-01-20T14:47:04.354Z,4.30
2023-01-20T14:49:39.314Z,4.30
2023-01-20T14:52:09.338Z,4.30
2023-01-20T14:54:44.947Z,4.20
2023-01-20T14:57:25.953Z,4.10
2023-01-20T15:00:22.120Z,4.10
2023-01-20T15:03:09.998Z,4.00
2023-01-20T15:05:41.735Z,3.90
2023-01-20T15:09:04.305Z,3.90
2023-01-20T15:11:36.411Z,3.70
2023-01-20T15:14:10.896Z,3.70
2023-01-20T15:17:00.578Z,3.60
2023-01-20T15:19:36.963Z,3.40
2023-01-20T15:22:21.606Z,3.30
2023-01-20T15:24:51.295Z,3.20
2023-01-20T15:27:33.173Z,3.00
2023-01-20T15:30:21.330Z,2.90
2023-01-20T15:32:51.396Z,2.80
2023-01-20T15:35:22.891Z,2.60
2023-01-20T15:37:55.149Z,2.50
2023-01-20T15:40:25.228Z,2.40
2023-01-20T15:42:56.875Z,2.30
2023-01-20T15:45:25.697Z,2.20
2023-01-20T15:47:53.932Z,2.10
2023-01-20T15:50:24.395Z,2.00
2023-01-20T15:52:52.561Z,2.00
2023-01-20T15:55:21.246Z,1.90
2023-01-20T15:57:54.243Z,1.80
2023-01-20T16:00:24.842Z,1.70
2023-01-20T16:02:53.148Z,1.60
2023-01-20T16:05:22.045Z,1.50
2023-01-20T16:07:50.326Z,1.40
2023-01-20T16:10:20.656Z,1.40
2023-01-20T16:12:49.337Z,1.30
2023-01-20T16:15:19.456Z,1.20
2023-01-20T16:17:47.811Z,1.10
2023-01-20T16:20:26.504Z,1.10
2023-01-20T16:22:54.747Z,1.10
2023-01-20T16:25:23.157Z,1.00
2023-01-20T16:27:51.451Z,1.00
2023-01-20T16:30:23.870Z,1.00
2023-01-20T16:32:52.131Z,1.00
2023-01-20T16:35:23.458Z,0.90
2023-01-20T16:37:52.305Z,0.90
2023-01-20T16:40:24.494Z,0.90
2023-01-20T16:42:56.803Z,0.90
2023-01-20T16:45:30.280Z,0.90
2023-01-20T16:47:58.464Z,0.80
2023-01-20T16:50:28.358Z,0.80
2023-01-20T16:52:57.181Z,0.80
2023-01-20T16:55:25.387Z,0.70
2023-01-20T16:57:54.084Z,0.70
2023-01-20T17:00:23.875Z,0.70
2023-01-20T17:02:54.288Z,0.60
2023-01-20T17:05:25.429Z,0.50
2023-01-20T17:07:56.876Z,0.50
2023-01-20T17:10:27.758Z,0.50
2023-01-20T17:12:57.312Z,0.40
2023-01-20T17:15:27.443Z,0.40
2023-01-20T17:18:00.236Z,0.40
2023-01-20T17:20:30.809Z,0.30
2023-01-20T17:22:59.047Z,0.30
2023-01-20T17:25:27.166Z,0.20
2023-01-20T17:27:55.303Z,0.20
2023-01-20T17:30:26.062Z,0.20
2023-01-20T17:32:56.119Z,0.10
2023-01-20T17:35:24.349Z,0.00
2023-01-20T17:37:52.532Z,0.00
2023-01-20T17:40:20.910Z,-0.10
2023-01-20T17:42:49.002Z,-0.10
2023-01-20T17:45:17.295Z,-0.20
2023-01-20T17:47:45.450Z,-0.20
2023-01-20T17:50:15.556Z,-0.30
2023-01-20T17:52:43.991Z,-0.30
2023-01-20T17:55:12.386Z,-0.40
2023-01-20T17:57:40.578Z,-0.50
2023-01-20T18:00:11.083Z,-0.50
2023-01-20T18:02:39.455Z,-0.60
2023-01-20T18:05:08.605Z,-0.60
2023-01-20T18:07:39.246Z,-0.70
2023-01-20T18:10:07.888Z,-0.70
2023-01-20T18:12:36.111Z,-0.80
2023-01-20T18:15:04.685Z,-0.80
2023-01-20T18:17:34.389Z,-0.80
2023-01-20T18:20:02.739Z,-0.90
2023-01-20T18:22:31.068Z,-0.90
2023-01-20T18:25:00.535Z,-1.00
2023-01-20T18:27:28.726Z,-1.00
2023-01-20T18:29:56.951Z,-1.10
2023-01-20T18:32:25.720Z,-1.10
2023-01-20T18:34:53.826Z,-1.10
2023-01-20T18:37:21.915Z,-1.20
2023-01-20T18:39:50.051Z,-1.20
2023-01-20T18:42:19.599Z,-1.20
2023-01-20T18:44:47.840Z,-1.20
2023-01-20T18:47:16.011Z,-1.30
2023-01-20T18:49:44.272Z,-1.30
2023-01-20T18:52:12.436Z,-1.30
2023-01-20T18:54:40.572Z,-1.30
2023-01-20T18:57:09.209Z,-1.40
2023-01-20T18:59:39.199Z,-1.40
2023-01-20T19:02:07.619Z,-1.40
2023-01-20T19:04:36.482Z,-1.50
2023-01-20T19:07:05.845Z,-1.50
2023-01-20T19:09:34.039Z,-1.50
2023-01-20T19:12:02.347Z,-1.60
2023-01-20T19:14:30.622Z,-1.60
2023-01-20T19:17:00.163Z,-1.60
2023-01-20T19:19:28.329Z,-1.70
2023-01-20T19:21:56.558Z,-1.70
2023-01-20T19:24:28.830Z,-1.80
2023-01-20T19:26:57.947Z,-1.80
2023-01-20T19:29:29.037Z,-1.80
2023-01-20T19:31:58.961Z,-1.90
2023-01-20T19:34:28.383Z,-1.90
2023-01-20T19:36:57.456Z,-1.90
2023-01-20T19:39:25.656Z,-2.00
2023-01-20T19:41:54.367Z,-2.00
2023-01-20T19:44:22.595Z,-2.10
2023-01-20T19:46:50.756Z,-2.10
2023-01-20T19:49:20.588Z,-2.10
2023-01-20T19:51:48.774Z,-2.20
2023-01-20T19:54:17.143Z,-2.20
2023-01-20T19:56:45.912Z,-2.20
2023-01-20T19:59:15.095Z,-2.30
2023-01-20T20:01:43.550Z,-2.30
2023-01-20T20:04:13.790Z,-2.40
2023-01-20T20:06:48.457Z,-2.40
2023-01-20T20:09:19.409Z,-2.40
2023-01-20T20:11:48.088Z,-2.40
2023-01-20T20:14:19.424Z,-2.40
2023-01-20T20:16:48.428Z,-2.50
2023-01-20T20:19:19.430Z,-2.50
2023-01-20T20:21:51.478Z,-2.50
2023-01-20T20:24:19.876Z,-2.50
2023-01-20T20:26:48.601Z,-2.60
2023-01-20T20:29:19.813Z,-2.60
2023-01-20T20:31:48.176Z,-2.60
2023-01-20T20:34:19.166Z,-2.70
2023-01-20T20:36:48.744Z,-2.70
2023-01-20T20:39:19.182Z,-2.80
2023-01-20T20:41:48.326Z,-2.80
2023-01-20T20:44:16.755Z,-2.80
2023-01-20T20:46:45.202Z,-2.90
2023-01-20T20:49:16.844Z,-2.90
2023-01-20T20:51:47.188Z,-3.00
2023-01-20T20:54:17.067Z,-2.90
2023-01-20T20:56:46.018Z,-2.90
2023-01-20T20:59:14.276Z,-2.90
2023-01-20T21:01:42.552Z,-3.00
2023-01-20T21:04:11.559Z,-3.00
2023-01-20T21:06:39.831Z,-2.90
2023-01-20T21:09:08.180Z,-2.90
2023-01-20T21:11:38.782Z,-2.90
2023-01-20T21:14:08.324Z,-2.90
2023-01-20T21:16:37.825Z,-2.90
2023-01-20T21:19:06.208Z,-2.90
2023-01-20T21:21:34.580Z,-2.90
2023-01-20T21:24:02.827Z,-2.90
2023-01-20T21:26:31.178Z,-2.90
2023-01-20T21:29:03.587Z,-2.80
2023-01-20T21:31:32.443Z,-2.80
2023-01-20T21:34:01.782Z,-2.80
2023-01-20T21:36:31.697Z,-2.80
2023-01-20T21:39:00.664Z,-2.70
2023-01-20T21:41:28.915Z,-2.70
2023-01-20T21:44:14.500Z,-2.70
2023-01-20T21:46:44.077Z,-2.70
2023-01-20T21:49:30.197Z,-2.60
2023-01-20T21:52:16.164Z,-2.60
2023-01-20T21:54:45.360Z,-2.60
2023-01-20T21:57:14.397Z,-2.60
2023-01-20T21:59:43.197Z,-2.60
2023-01-20T22:02:14.111Z,-2.60
2023-01-20T22:04:42.600Z,-2.60
2023-01-20T22:07:11.293Z,-2.50
2023-01-20T22:09:40.331Z,-2.50
2023-01-20T22:12:09.459Z,-2.50
2023-01-20T22:14:38.405Z,-2.50
2023-01-20T22:17:07.900Z,-2.40
2023-01-20T22:19:40.241Z,-2.30
2023-01-20T22:22:09.168Z,-2.30
2023-01-20T22:24:37.395Z,-2.20
2023-01-20T22:27:05.584Z,-2.20
2023-01-20T22:29:33.730Z,-2.10
2023-01-20T22:32:03.979Z,-2.10
2023-01-20T22:34:32.645Z,-2.00
2023-01-20T22:37:02.332Z,-2.00
2023-01-20T22:39:30.481Z,-1.90
2023-01-20T22:41:58.798Z,-1.90
2023-01-20T22:44:27.017Z,-1.80
2023-01-20T22:46:55.308Z,-1.80
2023-01-20T22:49:23.480Z,-1.70
2023-01-20T22:51:54.556Z,-1.70
2023-01-20T22:54:24.975Z,-1.60
2023-01-20T22:56:53.246Z,-1.60
2023-01-20T22:59:21.387Z,-1.60
2023-01-20T23:01:49.788Z,-1.60
2023-01-20T23:04:18.169Z,-1.60
2023-01-20T23:06:46.346Z,-1.60
2023-01-20T23:09:15.685Z,-1.50
2023-01-20T23:11:45.373Z,-1.50
2023-01-20T23:14:13.999Z,-1.50
2023-01-20T23:16:43.534Z,-1.40
2023-01-20T23:19:12.645Z,-1.40
2023-01-20T23:21:40.844Z,-1.40
2023-01-20T23:24:09.487Z,-1.40
2023-01-20T23:26:37.708Z,-1.40
2023-01-20T23:29:07.291Z,-1.30
2023-01-20T23:31:35.749Z,-1.30
2023-01-20T23:34:04.249Z,-1.20
2023-01-20T23:36:32.500Z,-1.20
2023-01-20T23:39:00.669Z,-1.20
2023-01-20T23:41:28.883Z,-1.10
2023-01-20T23:43:56.969Z,-1.10
2023-01-20T23:46:26.531Z,-1.10
2023-01-20T23:48:54.773Z,-1.10
2023-01-20T23:51:23.071Z,-1.00
2023-01-20T23:53:51.301Z,-1.00
2023-01-20T23:56:22.183Z,-1.00
2023-01-20T23:58:50.916Z,-1.00
